createdAt,value
2022-12-05T00:01:21.763Z,100.00
2022-12-05T00:03:50.134Z,100.00
2022-12-05T00:06:17.504Z,100.00
2022-12-05T00:08:44.842Z,100.00
2022-12-05T00:11:13.593Z,100.00
2022-12-05T00:13:41.037Z,100.00
2022-12-05T00:16:12.192Z,100.00
2022-12-05T00:18:39.100Z,100.00
2022-12-05T00:21:06.881Z,100.00
2022-12-05T00:23:33.749Z,100.00
2022-12-05T00:26:04.789Z,100.00
2022-12-05T00:28:32.394Z,100.00
2022-12-05T00:31:03.608Z,100.00
2022-12-05T00:33:30.064Z,100.00
2022-12-05T00:36:01.861Z,100.00
2022-12-05T00:38:28.339Z,100.00
2022-12-05T00:40:54.793Z,100.00
2022-12-05T00:43:21.182Z,100.00
2022-12-05T00:45:47.592Z,100.00
2022-12-05T00:48:14.131Z,100.00
2022-12-05T00:50:40.598Z,100.00
2022-12-05T00:53:07.003Z,100.00
2022-12-05T00:55:37.386Z,100.00
2022-12-05T00:58:03.836Z,100.00
2022-12-05T01:00:30.458Z,100.00
2022-12-05T01:02:56.928Z,100.00
2022-12-05T01:05:23.403Z,100.00
2022-12-05T01:07:49.896Z,100.00
2022-12-05T01:10:16.528Z,100.00
2022-12-05T01:12:42.932Z,100.00
2022-12-05T01:15:10.050Z,100.00
2022-12-05T01:17:36.454Z,100.00
2022-12-05T01:20:03.213Z,100.00
2022-12-05T01:22:29.623Z,100.00
2022-12-05T01:24:56.065Z,100.00
2022-12-05T01:27:22.543Z,100.00
2022-12-05T01:29:49.079Z,100.00
2022-12-05T01:32:15.587Z,100.00
2022-12-05T01:34:42.118Z,100.00
2022-12-05T01:37:08.586Z,100.00
2022-12-05T01:39:35.064Z,100.00
2022-12-05T01:42:01.592Z,100.00
2022-12-05T01:44:28.064Z,100.00
2022-12-05T01:46:55.761Z,100.00
2022-12-05T01:49:37.446Z,100.00
2022-12-05T01:52:13.342Z,100.00
2022-12-05T01:54:40.765Z,100.00
2022-12-05T01:57:10.590Z,100.00
2022-12-05T01:59:41.698Z,100.00
2022-12-05T02:02:08.826Z,100.00
2022-12-05T02:04:42.051Z,100.00
2022-12-05T02:07:08.507Z,100.00
2022-12-05T02:09:36.499Z,100.00
2022-12-05T02:12:04.282Z,100.00
2022-12-05T02:15:01.300Z,100.00
2022-12-05T02:17:51.125Z,100.00
2022-12-05T02:20:46.731Z,100.00
2022-12-05T02:23:27.541Z,100.00
2022-12-05T02:26:12.840Z,100.00
2022-12-05T02:29:09.603Z,100.00
2022-12-05T02:31:56.421Z,100.00
2022-12-05T02:34:35.144Z,100.00
2022-12-05T02:37:14.779Z,100.00
2022-12-05T02:39:43.902Z,100.00
2022-12-05T02:42:19.837Z,100.00
2022-12-05T02:44:56.506Z,100.00
2022-12-05T02:47:27.467Z,100.00
2022-12-05T02:49:55.219Z,100.00
2022-12-05T02:52:24.202Z,100.00
2022-12-05T02:54:53.419Z,100.00
2022-12-05T02:57:21.550Z,100.00
2022-12-05T02:59:48.115Z,100.00
2022-12-05T03:02:41.276Z,100.00
2022-12-05T03:05:39.983Z,100.00
2022-12-05T03:08:10.639Z,100.00
2022-12-05T03:10:40.463Z,100.00
2022-12-05T03:13:16.970Z,100.00
2022-12-05T03:15:51.958Z,100.00
2022-12-05T03:18:25.941Z,100.00
2022-12-05T03:21:02.293Z,100.00
2022-12-05T03:23:34.662Z,100.00
2022-12-05T03:26:25.930Z,100.00
2022-12-05T03:29:12.296Z,100.00
2022-12-05T03:31:49.902Z,100.00
2022-12-05T03:34:27.533Z,100.00
2022-12-05T03:36:54.605Z,100.00
2022-12-05T03:39:31.882Z,100.00
2022-12-05T03:42:03.908Z,100.00
2022-12-05T03:44:53.222Z,100.00
2022-12-05T03:47:41.098Z,100.00
2022-12-05T03:50:25.575Z,100.00
2022-12-05T03:53:19.234Z,100.00
2022-12-05T03:55:47.255Z,100.00
2022-12-05T03:58:52.160Z,100.00
2022-12-05T04:01:22.771Z,100.00
2022-12-05T04:03:57.965Z,100.00
2022-12-05T04:06:35.362Z,100.00
2022-12-05T04:09:16.908Z,100.00
2022-12-05T04:11:50.994Z,100.00
2022-12-05T04:14:30.487Z,100.00
2022-12-05T04:17:05.467Z,100.00
2022-12-05T04:20:03.268Z,100.00
2022-12-05T04:22:30.247Z,100.00
2022-12-05T04:25:18.426Z,100.00
2022-12-05T04:27:50.698Z,100.00
2022-12-05T04:30:26.349Z,100.00
2022-12-05T04:33:04.694Z,100.00
2022-12-05T04:35:36.870Z,100.00
2022-12-05T04:38:15.333Z,100.00
2022-12-05T04:40:53.196Z,100.00
2022-12-05T04:43:21.453Z,100.00
2022-12-05T04:45:51.016Z,100.00
2022-12-05T04:48:19.380Z,100.00
2022-12-05T04:50:49.192Z,100.00
2022-12-05T04:53:17.364Z,100.00
2022-12-05T04:55:49.346Z,100.00
2022-12-05T04:58:19.589Z,100.00
2022-12-05T05:01:04.676Z,100.00
2022-12-05T05:03:38.382Z,100.00
2022-12-05T05:06:05.200Z,100.00
2022-12-05T05:08:31.666Z,100.00
2022-12-05T05:11:06.822Z,100.00
2022-12-05T05:13:33.325Z,100.00
2022-12-05T05:15:59.829Z,100.00
2022-12-05T05:18:26.400Z,100.00
2022-12-05T05:20:52.868Z,100.00
2022-12-05T05:23:19.314Z,100.00
2022-12-05T05:25:45.933Z,100.00
2022-12-05T05:28:12.367Z,100.00
2022-12-05T05:30:38.785Z,100.00
2022-12-05T05:33:05.264Z,100.00
2022-12-05T05:35:31.699Z,100.00
2022-12-05T05:37:58.088Z,100.00
2022-12-05T05:40:24.515Z,100.00
2022-12-05T05:42:51.163Z,100.00
2022-12-05T05:45:18.176Z,100.00
2022-12-05T05:47:44.908Z,100.00
2022-12-05T05:50:16.256Z,100.00
2022-12-05T05:52:46.154Z,100.00
2022-12-05T05:55:12.584Z,100.00
2022-12-05T05:57:39.036Z,100.00
2022-12-05T06:00:07.225Z,100.00
2022-12-05T06:02:35.172Z,100.00
2022-12-05T06:05:01.889Z,100.00
2022-12-05T06:07:29.076Z,100.00
2022-12-05T06:09:55.858Z,100.00
2022-12-05T06:12:22.969Z,100.00
2022-12-05T06:14:50.061Z,100.00
2022-12-05T06:17:16.834Z,100.00
2022-12-05T06:19:43.374Z,100.00
2022-12-05T06:22:09.807Z,100.00
2022-12-05T06:24:36.426Z,100.00
2022-12-05T06:27:02.867Z,100.00
2022-12-05T06:29:33.604Z,100.00
2022-12-05T06:32:00.946Z,100.00
2022-12-05T06:34:27.459Z,100.00
2022-12-05T06:36:53.855Z,100.00
2022-12-05T06:39:20.402Z,100.00
2022-12-05T06:41:47.013Z,100.00
2022-12-05T06:44:13.501Z,100.00
2022-12-05T06:46:39.952Z,100.00
2022-12-05T06:49:06.494Z,100.00
2022-12-05T06:51:32.934Z,100.00
2022-12-05T06:53:59.429Z,100.00
2022-12-05T06:56:25.981Z,100.00
2022-12-05T06:58:55.543Z,100.00
2022-12-05T07:01:40.815Z,100.00
2022-12-05T07:04:11.130Z,100.00
2022-12-05T07:06:37.813Z,100.00
2022-12-05T07:09:06.279Z,100.00
2022-12-05T07:11:33.466Z,100.00
2022-12-05T07:13:59.920Z,100.00
2022-12-05T07:16:26.460Z,100.00
2022-12-05T07:18:53.068Z,100.00
2022-12-05T07:21:21.605Z,100.00
2022-12-05T07:23:50.233Z,100.00
2022-12-05T07:26:22.011Z,100.00
2022-12-05T07:28:49.591Z,100.00
2022-12-05T07:31:20.678Z,100.00
2022-12-05T07:33:47.163Z,100.00
2022-12-05T07:36:16.731Z,100.00
2022-12-05T07:38:44.000Z,100.00
2022-12-05T07:41:23.216Z,100.00
2022-12-05T07:43:54.355Z,100.00
2022-12-05T07:46:21.713Z,100.00
2022-12-05T07:48:49.211Z,100.00
2022-12-05T07:51:16.020Z,100.00
2022-12-05T07:53:43.742Z,100.00
2022-12-05T07:56:14.502Z,100.00
2022-12-05T07:58:40.921Z,100.00
2022-12-05T08:01:08.836Z,100.00
2022-12-05T08:03:37.412Z,100.00
2022-12-05T08:06:05.948Z,100.00
2022-12-05T08:08:32.938Z,100.00
2022-12-05T08:11:12.024Z,100.00
2022-12-05T08:13:38.823Z,100.00
2022-12-05T08:16:08.605Z,100.00
2022-12-05T08:18:35.634Z,100.00
2022-12-05T08:21:04.005Z,100.00
2022-12-05T08:23:31.793Z,100.00
2022-12-05T08:26:03.569Z,100.00
2022-12-05T08:28:30.581Z,100.00
2022-12-05T08:31:02.420Z,100.00
2022-12-05T08:33:29.260Z,100.00
2022-12-05T08:35:55.714Z,100.00
2022-12-05T08:38:23.359Z,100.00
2022-12-05T08:40:49.751Z,100.00
2022-12-05T08:43:16.158Z,100.00
2022-12-05T08:45:49.914Z,100.00
2022-12-05T08:48:16.428Z,100.00
2022-12-05T08:50:42.886Z,100.00
2022-12-05T08:53:09.372Z,100.00
2022-12-05T08:55:38.764Z,100.00
2022-12-05T08:58:05.616Z,100.00
2022-12-05T09:00:32.100Z,100.00
2022-12-05T09:02:59.062Z,100.00
2022-12-05T09:05:29.065Z,100.00
2022-12-05T09:07:56.122Z,100.00
2022-12-05T09:10:22.846Z,100.00
2022-12-05T09:12:51.289Z,100.00
2022-12-05T09:15:18.201Z,100.00
2022-12-05T09:17:45.086Z,100.00
2022-12-05T09:20:13.821Z,100.00
2022-12-05T09:22:41.394Z,100.00
2022-12-05T09:25:09.026Z,100.00
2022-12-05T09:27:35.553Z,100.00
2022-12-05T09:30:02.323Z,100.00
2022-12-05T09:32:29.071Z,100.00
2022-12-05T09:34:55.734Z,100.00
2022-12-05T09:37:38.512Z,100.00
2022-12-05T09:40:06.742Z,100.00
2022-12-05T09:42:43.968Z,100.00
2022-12-05T09:45:28.898Z,100.00
2022-12-05T09:48:07.057Z,100.00
2022-12-05T09:50:48.259Z,100.00
2022-12-05T09:53:27.417Z,100.00
2022-12-05T09:56:06.113Z,100.00
2022-12-05T09:58:57.114Z,100.00
2022-12-05T10:02:01.924Z,100.00
2022-12-05T10:04:35.026Z,100.00
2022-12-05T10:07:17.805Z,100.00
2022-12-05T10:10:20.000Z,100.00
2022-12-05T10:13:05.376Z,100.00
2022-12-05T10:15:38.167Z,100.00
2022-12-05T10:18:11.046Z,100.00
2022-12-05T10:20:40.511Z,100.00
2022-12-05T10:23:55.621Z,100.00
2022-12-05T10:26:13.310Z,100.00
2022-12-05T10:29:06.985Z,100.00
2022-12-05T10:31:37.588Z,100.00
2022-12-05T10:34:23.338Z,98.50
2022-12-05T10:37:09.545Z,98.09
2022-12-05T10:39:37.282Z,97.91
2022-12-05T10:42:05.230Z,100.00
2022-12-05T10:44:33.411Z,98.06
2022-12-05T10:47:00.055Z,96.00
2022-12-05T10:49:28.052Z,92.04
2022-12-05T10:51:54.496Z,90.12
2022-12-05T10:54:24.889Z,88.11
2022-12-05T10:56:53.312Z,90.51
2022-12-05T10:59:46.790Z,90.82
2022-12-05T11:02:23.268Z,93.36
2022-12-05T11:04:50.836Z,91.58
2022-12-05T11:07:43.783Z,91.55
2022-12-05T11:10:34.458Z,92.01
2022-12-05T11:13:02.163Z,92.23
2022-12-05T11:15:30.811Z,89.62
2022-12-05T11:18:16.965Z,83.90
2022-12-05T11:20:43.498Z,78.91
2022-12-05T11:23:23.282Z,76.15
2022-12-05T11:25:50.982Z,76.66
2022-12-05T11:28:17.459Z,77.45
2022-12-05T11:31:23.008Z,81.82
2022-12-05T11:34:02.350Z,79.82
2022-12-05T11:36:43.708Z,75.94
2022-12-05T11:39:13.125Z,77.15
2022-12-05T11:41:47.665Z,78.33
2022-12-05T11:44:32.567Z,74.27
2022-12-05T11:47:11.176Z,72.00
2022-12-05T11:49:53.862Z,70.82
2022-12-05T11:52:22.971Z,72.01
2022-12-05T11:55:04.915Z,70.68
2022-12-05T11:57:51.986Z,66.92
2022-12-05T12:00:49.973Z,67.87
2022-12-05T12:03:34.163Z,66.58
2022-12-05T12:06:43.780Z,68.16
2022-12-05T12:09:25.379Z,65.57
2022-12-05T12:11:51.818Z,63.75
2022-12-05T12:14:47.330Z,62.30
2022-12-05T12:17:31.365Z,61.00
2022-12-05T12:20:19.137Z,60.25
2022-12-05T12:23:05.688Z,60.55
2022-12-05T12:26:09.068Z,60.66
2022-12-05T12:28:52.713Z,58.18
2022-12-05T12:31:34.247Z,58.60
2022-12-05T12:34:19.491Z,59.20
2022-12-05T12:36:53.505Z,58.59
2022-12-05T12:40:03.611Z,58.75
2022-12-05T12:42:50.244Z,60.64
2022-12-05T12:45:35.793Z,63.05
2022-12-05T12:48:10.520Z,64.79
2022-12-05T12:50:44.015Z,65.00
2022-12-05T12:53:19.863Z,65.82
2022-12-05T12:56:20.583Z,67.19
2022-12-05T12:58:54.090Z,65.99
2022-12-05T13:01:26.520Z,64.30
2022-12-05T13:04:02.534Z,64.63
2022-12-05T13:06:43.108Z,62.92
2022-12-05T13:09:18.192Z,61.17
2022-12-05T13:11:46.797Z,62.45
2022-12-05T13:14:17.796Z,63.04
2022-12-05T13:16:50.365Z,64.28
2022-12-05T13:19:37.954Z,65.92
2022-12-05T13:22:06.662Z,68.25
2022-12-05T13:24:33.520Z,68.23
2022-12-05T13:27:02.795Z,68.79
2022-12-05T13:29:34.358Z,67.79
2022-12-05T13:32:04.250Z,68.01
2022-12-05T13:34:45.958Z,68.39
2022-12-05T13:37:44.477Z,67.29
2022-12-05T13:40:46.469Z,67.08
2022-12-05T13:43:16.439Z,69.23
2022-12-05T13:45:58.858Z,69.91
2022-12-05T13:48:26.915Z,70.46
2022-12-05T13:51:22.719Z,69.62
2022-12-05T13:53:58.105Z,71.07
2022-12-05T13:56:58.972Z,70.25
2022-12-05T14:00:01.340Z,70.02
2022-12-05T14:02:46.956Z,69.70
2022-12-05T14:05:19.428Z,70.33
2022-12-05T14:07:48.158Z,71.64
2022-12-05T14:10:28.235Z,72.53
2022-12-05T14:13:24.024Z,72.42
2022-12-05T14:15:51.682Z,73.34
2022-12-05T14:18:54.601Z,74.41
2022-12-05T14:21:49.117Z,74.39
2022-12-05T14:24:36.966Z,75.77
2022-12-05T14:27:21.356Z,76.11
2022-12-05T14:30:06.529Z,75.85
2022-12-05T14:32:42.607Z,76.57
2022-12-05T14:35:15.162Z,76.68
2022-12-05T14:37:57.754Z,75.91
2022-12-05T14:40:32.389Z,76.41
2022-12-05T14:43:31.234Z,76.59
2022-12-05T14:46:08.221Z,77.36
2022-12-05T14:48:48.272Z,77.39
2022-12-05T14:51:38.190Z,78.11
2022-12-05T14:54:10.459Z,78.76
2022-12-05T14:56:42.645Z,78.03
2022-12-05T14:59:27.278Z,78.07
2022-12-05T15:02:00.852Z,77.85
2022-12-05T15:04:44.291Z,78.25
2022-12-05T15:07:16.850Z,80.01
2022-12-05T15:10:04.997Z,80.42
2022-12-05T15:12:51.667Z,80.06
2022-12-05T15:15:39.358Z,82.07
2022-12-05T15:18:24.239Z,82.40
2022-12-05T15:20:50.598Z,81.03
2022-12-05T15:23:49.187Z,82.38
2022-12-05T15:29:10.465Z,83.20
2022-12-05T15:31:44.516Z,83.39
2022-12-05T15:34:31.946Z,83.85
2022-12-05T15:37:05.010Z,83.31
2022-12-05T15:40:09.855Z,84.58
2022-12-05T15:42:41.321Z,85.21
2022-12-05T15:45:13.639Z,86.56
2022-12-05T15:47:45.323Z,86.12
2022-12-05T15:50:17.191Z,86.31
2022-12-05T15:52:51.346Z,85.96
2022-12-05T15:55:25.956Z,87.34
2022-12-05T15:58:25.003Z,86.29
2022-12-05T16:01:01.134Z,87.55
2022-12-05T16:03:46.053Z,86.72
2022-12-05T16:06:26.837Z,87.44
2022-12-05T16:08:54.201Z,87.89
2022-12-05T16:11:20.908Z,86.57
2022-12-05T16:13:56.213Z,88.71
2022-12-05T16:16:25.828Z,89.28
2022-12-05T16:18:58.360Z,89.43
2022-12-05T16:21:38.975Z,88.81
2022-12-05T16:24:15.896Z,87.35
2022-12-05T16:26:42.705Z,88.00
2022-12-05T16:29:28.275Z,88.76
2022-12-05T16:32:00.273Z,89.06
2022-12-05T16:34:29.151Z,89.44
2022-12-05T16:36:56.900Z,88.68
2022-12-05T16:39:25.774Z,89.58
2022-12-05T16:41:52.746Z,89.97
2022-12-05T16:44:31.800Z,89.96
2022-12-05T16:46:58.795Z,91.27
2022-12-05T16:49:38.819Z,91.52
2022-12-05T16:52:09.158Z,91.07
2022-12-05T16:54:35.729Z,91.52
2022-12-05T16:57:02.852Z,91.61
2022-12-05T16:59:36.591Z,90.99
2022-12-05T17:02:05.584Z,92.16
2022-12-05T17:04:32.133Z,93.13
2022-12-05T17:06:58.925Z,92.67
2022-12-05T17:09:25.365Z,93.20
2022-12-05T17:11:57.118Z,92.06
2022-12-05T17:14:23.883Z,91.99
2022-12-05T17:16:50.371Z,91.62
2022-12-05T17:19:16.899Z,92.97
2022-12-05T17:21:43.697Z,91.17
2022-12-05T17:24:17.304Z,97.74
2022-12-05T17:26:44.629Z,97.40
2022-12-05T17:29:11.616Z,89.05
2022-12-05T17:31:38.235Z,89.27
2022-12-05T17:34:13.824Z,91.27
2022-12-05T17:36:40.237Z,92.44
2022-12-05T17:39:06.644Z,92.58
2022-12-05T17:41:33.067Z,93.18
2022-12-05T17:43:59.502Z,95.52
2022-12-05T17:46:25.934Z,96.23
2022-12-05T17:48:52.589Z,95.88
2022-12-05T17:51:20.174Z,97.65
2022-12-05T17:53:47.522Z,96.13
2022-12-05T17:56:14.279Z,96.04
2022-12-05T17:58:41.285Z,95.93
2022-12-05T18:01:14.218Z,96.22
2022-12-05T18:03:40.725Z,96.51
2022-12-05T18:06:07.550Z,96.10
2022-12-05T18:08:34.187Z,96.65
2022-12-05T18:11:00.621Z,97.18
2022-12-05T18:13:27.023Z,97.25
2022-12-05T18:15:58.012Z,97.70
2022-12-05T18:18:27.355Z,97.68
2022-12-05T18:20:53.903Z,97.59
2022-12-05T18:23:20.472Z,98.15
2022-12-05T18:25:57.074Z,97.34
2022-12-05T18:28:23.609Z,97.62
2022-12-05T18:30:50.085Z,97.49
2022-12-05T18:33:16.504Z,98.93
2022-12-05T18:35:43.004Z,99.41
2022-12-05T18:38:12.819Z,100.00
2022-12-05T18:40:39.355Z,100.00
2022-12-05T18:43:06.138Z,100.00
2022-12-05T18:45:32.782Z,100.00
2022-12-05T18:48:09.796Z,100.00
2022-12-05T18:50:45.805Z,99.69
2022-12-05T18:53:12.257Z,99.03
2022-12-05T18:56:04.785Z,99.38
2022-12-05T18:58:25.028Z,100.00
2022-12-05T19:00:51.468Z,100.00
2022-12-05T19:03:18.041Z,100.00
2022-12-05T19:05:44.441Z,99.37
2022-12-05T19:08:10.933Z,99.53
2022-12-05T19:10:37.520Z,100.00
2022-12-05T19:13:04.025Z,100.00
2022-12-05T19:15:30.504Z,99.62
2022-12-05T19:17:56.906Z,99.30
2022-12-05T19:20:23.304Z,100.00
2022-12-05T19:22:49.744Z,98.90
2022-12-05T19:25:16.297Z,99.43
2022-12-05T19:27:42.723Z,99.36
2022-12-05T19:30:10.118Z,99.74
2022-12-05T19:32:40.310Z,100.00
2022-12-05T19:35:07.796Z,99.12
2022-12-05T19:37:34.399Z,99.73
2022-12-05T19:40:01.094Z,100.00
2022-12-05T19:42:29.394Z,100.00
2022-12-05T19:44:55.897Z,100.00
2022-12-05T19:47:22.474Z,100.00
2022-12-05T19:49:49.248Z,99.65
2022-12-05T19:52:18.027Z,100.00
2022-12-05T19:54:45.104Z,99.84
2022-12-05T19:57:12.118Z,100.00
2022-12-05T19:59:38.550Z,99.71
2022-12-05T20:02:05.044Z,100.00
2022-12-05T20:04:31.557Z,100.00
2022-12-05T20:06:57.959Z,100.00
2022-12-05T20:09:24.417Z,100.00
2022-12-05T20:11:55.095Z,100.00
2022-12-05T20:14:24.288Z,100.00
2022-12-05T20:16:50.948Z,99.39
2022-12-05T20:19:17.587Z,99.74
2022-12-05T20:21:44.513Z,99.05
2022-12-05T20:24:11.549Z,99.16
2022-12-05T20:26:41.205Z,100.00
2022-12-05T20:29:08.533Z,100.00
2022-12-05T20:31:41.098Z,99.99
2022-12-05T20:34:11.339Z,99.46
2022-12-05T20:36:37.827Z,99.72
2022-12-05T20:39:11.093Z,100.00
2022-12-05T20:41:37.664Z,100.00
2022-12-05T20:44:06.411Z,100.00
2022-12-05T20:46:33.309Z,100.00
2022-12-05T20:49:00.289Z,100.00
2022-12-05T20:51:29.834Z,100.00
2022-12-05T20:53:58.098Z,100.00
2022-12-05T20:56:29.562Z,100.00
2022-12-05T20:58:58.542Z,100.00
2022-12-05T21:01:26.888Z,100.00
2022-12-05T21:03:54.336Z,100.00
2022-12-05T21:06:32.202Z,100.00
2022-12-05T21:09:00.042Z,100.00
2022-12-05T21:11:28.127Z,100.00
2022-12-05T21:13:56.022Z,100.00
2022-12-05T21:16:23.383Z,100.00
2022-12-05T21:18:51.063Z,100.00
2022-12-05T21:21:20.790Z,100.00
2022-12-05T21:23:53.100Z,100.00
2022-12-05T21:26:20.788Z,100.00
2022-12-05T21:28:47.596Z,100.00
2022-12-05T21:31:20.191Z,100.00
2022-12-05T21:33:49.437Z,100.00
2022-12-05T21:36:16.369Z,100.00
2022-12-05T21:38:43.041Z,100.00
2022-12-05T21:41:09.472Z,100.00
2022-12-05T21:43:36.661Z,100.00
2022-12-05T21:46:03.880Z,100.00
2022-12-05T21:48:31.110Z,100.00
2022-12-05T21:50:57.732Z,100.00
2022-12-05T21:53:24.532Z,100.00
2022-12-05T21:56:11.519Z,100.00
2022-12-05T21:58:42.318Z,100.00
2022-12-05T22:01:10.806Z,100.00
2022-12-05T22:03:37.671Z,100.00
2022-12-05T22:06:06.919Z,100.00
2022-12-05T22:08:34.181Z,100.00
2022-12-05T22:11:15.936Z,100.00
2022-12-05T22:13:44.211Z,100.00
2022-12-05T22:16:12.160Z,100.00
2022-12-05T22:18:39.041Z,100.00
2022-12-05T22:21:12.831Z,100.00
2022-12-05T22:23:39.284Z,100.00
2022-12-05T22:26:08.231Z,100.00
2022-12-05T22:28:35.654Z,100.00
2022-12-05T22:31:04.485Z,100.00
2022-12-05T22:33:31.723Z,100.00
2022-12-05T22:36:00.074Z,100.00
2022-12-05T22:38:28.934Z,100.00
2022-12-05T22:41:11.034Z,100.00
2022-12-05T22:43:37.955Z,100.00
2022-12-05T22:46:10.723Z,100.00
2022-12-05T22:48:37.468Z,100.00
2022-12-05T22:51:06.297Z,100.00
2022-12-05T22:53:32.959Z,100.00
2022-12-05T22:56:16.413Z,100.00
2022-12-05T22:58:44.527Z,100.00
2022-12-05T23:01:16.880Z,100.00
2022-12-05T23:03:45.688Z,100.00
2022-12-05T23:06:13.952Z,100.00
2022-12-05T23:08:41.778Z,100.00
2022-12-05T23:11:10.198Z,100.00
2022-12-05T23:13:38.349Z,100.00
2022-12-05T23:16:10.071Z,100.00
2022-12-05T23:18:46.804Z,99.22
2022-12-05T23:21:23.730Z,99.58
2022-12-05T23:23:52.868Z,99.35
2022-12-05T23:26:22.233Z,99.87
2022-12-05T23:28:49.179Z,100.00
2022-12-05T23:31:16.413Z,99.89
2022-12-05T23:33:43.193Z,100.00
2022-12-05T23:36:11.121Z,100.00
2022-12-05T23:38:38.822Z,100.00
2022-12-05T23:41:12.580Z,100.00
2022-12-05T23:43:39.566Z,100.00
2022-12-05T23:46:06.522Z,100.00
2022-12-05T23:48:33.591Z,100.00
2022-12-05T23:51:27.965Z,100.00
2022-12-05T23:53:58.315Z,100.00
2022-12-05T23:56:27.854Z,100.00
2022-12-05T23:58:55.412Z,100.00
